Staunton, Illinois
Current Conditions -  °F | °C
As of 4:55 PM on Saturday 25 Oct 2014 (Local Time) from K3LF Reporting Station
Clear Clear  
Wind Chill: 78°   Ceiling: Unl
Heat Index: 78°   Visibility: 10mi
Dew Point: 47°   Wind: 6mph
Humidity: 34%   Direction: 280°W
Pressure: 30"   Gusts: NA
Location:  39.01°N, 89.79°W
Report Text: K3LF 252155Z AUTO 28005KT 10SM CLR 25/08 A3000 RMK AO2 T02530084
Loading
Personal Weather Stations






























Interactive Weather Map
Tropical Storm Tracking
New forecast layout! Learn more

10-Day Weather Forecast

Advertisements
Track Severe Weather on mobile